Time;durP1;ratioP1;P1;durP2;ratioP2;P2;SDS_P1;SDS_P2;PMS_P1;PMS_P2;Temp;Humidity;BMP_temperature;BMP_pressure;BME280_temperature;BME280_humidity;BME280_pressure;Samples;Min_cycle;Max_cycle;Signal;HPM_P1;HPM_P2
2021/05/12 00:00:17;;;;;;;;;;;20.90;53.80;;;;;;4979073;28;19956;-70
2021/05/12 00:02:44;;;;;;;;;;;20.90;53.90;;;;;;5003332;28;19928;-70
2021/05/12 00:05:10;;;;;;;;;;;21.00;53.80;;;;;;4995964;28;19938;-71
2021/05/12 00:07:36;;;;;;;;;;;21.00;53.90;;;;;;4980308;28;19936;-70
2021/05/12 00:10:03;;;;;;;;;;;21.00;53.70;;;;;;4996970;28;19930;-70
2021/05/12 00:12:29;;;;;;;;;;;21.10;53.70;;;;;;4983209;28;19933;-71
2021/05/12 00:14:55;;;;;;;;;;;21.10;53.70;;;;;;4995895;28;19941;-71
2021/05/12 00:17:21;;;;;;;;;;;21.10;53.60;;;;;;5004238;28;19929;-70
2021/05/12 00:19:55;;;;;;;;;;;21.10;53.70;;;;;;5000742;28;19929;-72
2021/05/12 00:22:32;;;;;;;;;;;21.10;53.70;;;;;;4998292;28;19968;-72
2021/05/12 00:24:58;;;;;;;;;;;21.10;53.70;;;;;;5002309;28;19937;-71
2021/05/12 00:27:24;;;;;;;;;;;21.00;53.70;;;;;;5000341;28;20440;-69
2021/05/12 00:29:50;;;;;;;;;;;21.00;53.60;;;;;;5000845;28;19933;-69
2021/05/12 00:32:16;;;;;;;;;;;21.00;53.60;;;;;;4988602;28;19929;-69
2021/05/12 00:34:42;;;;;;;;;;;21.00;53.70;;;;;;4998885;28;19937;-71
2021/05/12 00:37:09;;;;;;;;;;;21.00;53.80;;;;;;4979931;28;20016;-70
2021/05/12 00:39:35;;;;;;;;;;;21.00;53.80;;;;;;4998972;28;20395;-68
2021/05/12 00:42:01;;;;;;;;;;;21.00;53.80;;;;;;4995026;28;19929;-71
2021/05/12 00:44:27;;;;;;;;;;;21.00;53.80;;;;;;5012306;28;19929;-70
2021/05/12 00:46:53;;;;;;;;;;;21.00;53.60;;;;;;4997951;28;19937;-69
2021/05/12 00:49:19;;;;;;;;;;;21.00;53.70;;;;;;5000069;28;19963;-75
2021/05/12 00:51:45;;;;;;;;;;;21.00;53.70;;;;;;4999843;28;19952;-70
2021/05/12 00:54:12;;;;;;;;;;;21.00;53.70;;;;;;4997502;28;20524;-71
2021/05/12 00:56:39;;;;;;;;;;;21.00;54.00;;;;;;4987341;28;20360;-69
2021/05/12 00:59:06;;;;;;;;;;;21.00;53.50;;;;;;4992281;28;19933;-75
2021/05/12 01:01:31;;;;;;;;;;;21.00;53.60;;;;;;4973010;28;21137;-68
2021/05/12 01:03:57;;;;;;;;;;;21.00;53.60;;;;;;4994604;28;19934;-68
2021/05/12 01:06:24;;;;;;;;;;;21.00;53.50;;;;;;4991360;28;19929;-71
2021/05/12 01:08:50;;;;;;;;;;;21.00;53.50;;;;;;4979873;28;19996;-68
2021/05/12 01:11:17;;;;;;;;;;;21.00;53.70;;;;;;5000140;28;19929;-69
2021/05/12 01:13:43;;;;;;;;;;;21.00;53.60;;;;;;4998496;28;20425;-68
2021/05/12 01:16:11;;;;;;;;;;;21.00;53.50;;;;;;4998147;28;19936;-69
2021/05/12 01:18:37;;;;;;;;;;;21.00;53.50;;;;;;5003318;28;20010;-72
2021/05/12 01:21:04;;;;;;;;;;;21.10;53.50;;;;;;4999161;28;19937;-70
2021/05/12 01:23:30;;;;;;;;;;;21.10;53.50;;;;;;4996936;28;19929;-69
2021/05/12 01:25:57;;;;;;;;;;;21.10;53.40;;;;;;4996391;28;19929;-71
2021/05/12 01:28:23;;;;;;;;;;;21.10;53.60;;;;;;4994648;28;19929;-70
2021/05/12 01:30:50;;;;;;;;;;;21.10;53.30;;;;;;5000650;28;19938;-70
2021/05/12 01:33:16;;;;;;;;;;;21.10;53.30;;;;;;4995845;28;19930;-68
2021/05/12 01:35:42;;;;;;;;;;;21.10;53.30;;;;;;4999673;28;19992;-69
2021/05/12 01:38:09;;;;;;;;;;;21.10;53.40;;;;;;5001121;28;19929;-68
2021/05/12 01:40:35;;;;;;;;;;;21.10;53.30;;;;;;4996169;28;19937;-68
2021/05/12 01:43:01;;;;;;;;;;;21.10;53.30;;;;;;4997129;28;19945;-68
2021/05/12 01:45:27;;;;;;;;;;;21.10;53.40;;;;;;4995671;28;20699;-71
2021/05/12 01:47:53;;;;;;;;;;;21.10;53.30;;;;;;4999119;28;19938;-69
2021/05/12 01:50:19;;;;;;;;;;;21.10;53.30;;;;;;4997481;28;19936;-70
2021/05/12 01:52:45;;;;;;;;;;;21.10;53.20;;;;;;4997590;28;19930;-69
2021/05/12 01:55:13;;;;;;;;;;;21.10;53.20;;;;;;4998680;28;19925;-67
2021/05/12 01:57:39;;;;;;;;;;;21.10;53.20;;;;;;4988288;28;20010;-72
2021/05/12 02:00:16;;;;;;;;;;;21.10;53.30;;;;;;4999894;28;19995;-69
2021/05/12 02:02:42;;;;;;;;;;;21.10;53.40;;;;;;4996044;28;19929;-70
2021/05/12 02:05:09;;;;;;;;;;;21.10;53.50;;;;;;5006881;28;19952;-69
2021/05/12 02:07:35;;;;;;;;;;;21.10;54.20;;;;;;4976565;28;19929;-71
2021/05/12 02:10:01;;;;;;;;;;;21.00;53.30;;;;;;4993997;28;19991;-69
2021/05/12 02:12:28;;;;;;;;;;;21.00;53.30;;;;;;4993978;28;19943;-70
2021/05/12 02:14:54;;;;;;;;;;;21.00;53.30;;;;;;4992821;28;20389;-70
2021/05/12 02:17:20;;;;;;;;;;;21.00;53.30;;;;;;4996858;28;19929;-68
2021/05/12 02:19:47;;;;;;;;;;;21.00;53.30;;;;;;4999554;28;19937;-68
2021/05/12 02:22:13;;;;;;;;;;;21.00;53.30;;;;;;4998933;28;19929;-68
2021/05/12 02:24:39;;;;;;;;;;;21.00;53.30;;;;;;5007844;28;20336;-71
2021/05/12 02:27:06;;;;;;;;;;;21.10;53.30;;;;;;5001153;28;20428;-69
2021/05/12 02:29:32;;;;;;;;;;;21.00;53.20;;;;;;5001842;28;19930;-69
2021/05/12 02:31:59;;;;;;;;;;;21.10;53.30;;;;;;4994744;28;19929;-69
2021/05/12 02:34:25;;;;;;;;;;;21.10;53.40;;;;;;4996755;28;19929;-68
2021/05/12 02:36:51;;;;;;;;;;;21.10;53.40;;;;;;5001037;28;19933;-68
2021/05/12 02:39:17;;;;;;;;;;;21.10;53.50;;;;;;4995867;28;19979;-68
2021/05/12 02:41:43;;;;;;;;;;;21.00;53.30;;;;;;5006522;28;19987;-69
2021/05/12 02:44:09;;;;;;;;;;;21.00;53.30;;;;;;4998501;28;19933;-68
2021/05/12 02:46:35;;;;;;;;;;;21.00;53.30;;;;;;4999259;28;19933;-70
2021/05/12 02:49:02;;;;;;;;;;;21.00;53.30;;;;;;5001410;28;19936;-75
2021/05/12 02:51:28;;;;;;;;;;;21.00;53.40;;;;;;4999809;28;19936;-67
2021/05/12 02:53:54;;;;;;;;;;;21.00;53.40;;;;;;5000560;28;19957;-68
2021/05/12 02:56:20;;;;;;;;;;;21.00;53.30;;;;;;5002164;28;19996;-69
2021/05/12 02:58:46;;;;;;;;;;;21.00;53.30;;;;;;4989431;28;20405;-69
2021/05/12 03:01:12;;;;;;;;;;;21.00;53.40;;;;;;4999438;28;19987;-68
2021/05/12 03:03:38;;;;;;;;;;;21.00;53.40;;;;;;5002401;28;19933;-69
2021/05/12 03:06:04;;;;;;;;;;;21.00;53.20;;;;;;4997753;28;19930;-70
2021/05/12 03:08:30;;;;;;;;;;;21.00;53.30;;;;;;4975523;28;19933;-68
2021/05/12 03:10:56;;;;;;;;;;;21.00;53.30;;;;;;4962778;28;20699;-68
2021/05/12 03:13:22;;;;;;;;;;;21.00;53.10;;;;;;4986310;28;19929;-70
2021/05/12 03:15:49;;;;;;;;;;;21.10;53.30;;;;;;4997845;28;20309;-68
2021/05/12 03:18:15;;;;;;;;;;;21.10;53.20;;;;;;5001677;28;20967;-71
2021/05/12 03:20:41;;;;;;;;;;;21.10;53.20;;;;;;4996522;28;19929;-73
2021/05/12 03:23:07;;;;;;;;;;;21.10;53.20;;;;;;4991653;28;20514;-70
2021/05/12 03:25:34;;;;;;;;;;;21.00;53.20;;;;;;4966479;28;20412;-69
2021/05/12 03:28:00;;;;;;;;;;;21.00;53.30;;;;;;4993298;28;21000;-70
2021/05/12 03:30:27;;;;;;;;;;;21.00;53.30;;;;;;5008190;28;20379;-69
2021/05/12 03:32:53;;;;;;;;;;;20.90;53.40;;;;;;5002819;28;19933;-70
2021/05/12 03:35:19;;;;;;;;;;;20.90;53.40;;;;;;5001016;28;19929;-70
2021/05/12 03:37:46;;;;;;;;;;;20.90;53.40;;;;;;4993797;28;19933;-70
2021/05/12 03:40:12;;;;;;;;;;;20.90;53.40;;;;;;5008862;28;19936;-70
2021/05/12 03:42:38;;;;;;;;;;;20.90;53.50;;;;;;4998913;28;20520;-71
2021/05/12 03:45:04;;;;;;;;;;;21.00;53.50;;;;;;5001262;28;19926;-72
2021/05/12 03:47:30;;;;;;;;;;;21.00;53.50;;;;;;4998425;28;19979;-70
2021/05/12 03:49:56;;;;;;;;;;;21.00;53.60;;;;;;4998404;28;20443;-72
2021/05/12 03:52:22;;;;;;;;;;;21.00;53.50;;;;;;5000605;28;19929;-71
2021/05/12 03:54:50;;;;;;;;;;;21.00;53.40;;;;;;5000035;28;19988;-73
2021/05/12 03:57:16;;;;;;;;;;;21.00;53.40;;;;;;4993690;28;19971;-71
2021/05/12 03:59:42;;;;;;;;;;;21.00;53.40;;;;;;4984798;28;19952;-71
2021/05/12 04:02:08;;;;;;;;;;;21.10;53.50;;;;;;4987633;28;19929;-70
2021/05/12 04:04:34;;;;;;;;;;;21.10;53.30;;;;;;5001176;28;19933;-68
2021/05/12 04:07:00;;;;;;;;;;;21.10;53.20;;;;;;4979965;28;19933;-72
2021/05/12 04:09:28;;;;;;;;;;;21.20;53.20;;;;;;4993373;28;19940;-70
2021/05/12 04:11:55;;;;;;;;;;;21.20;53.20;;;;;;4998963;28;19934;-68
2021/05/12 04:14:21;;;;;;;;;;;21.20;53.10;;;;;;4996644;28;19938;-72
2021/05/12 04:16:49;;;;;;;;;;;21.20;53.10;;;;;;5001486;28;19979;-71
2021/05/12 04:19:15;;;;;;;;;;;21.20;53.20;;;;;;4995778;28;19960;-73
2021/05/12 04:21:41;;;;;;;;;;;21.20;53.20;;;;;;5002667;28;19929;-70
2021/05/12 04:24:07;;;;;;;;;;;21.20;53.20;;;;;;4990478;28;19933;-69
2021/05/12 04:26:33;;;;;;;;;;;21.20;53.20;;;;;;5004680;28;19984;-70
2021/05/12 04:29:00;;;;;;;;;;;21.20;53.20;;;;;;4990398;28;19929;-71
2021/05/12 04:31:26;;;;;;;;;;;21.20;53.20;;;;;;4993375;28;19933;-70
2021/05/12 04:33:52;;;;;;;;;;;21.20;53.20;;;;;;5001439;28;19929;-72
2021/05/12 04:36:18;;;;;;;;;;;21.20;53.10;;;;;;4994005;28;19936;-70
2021/05/12 04:38:44;;;;;;;;;;;21.20;53.20;;;;;;5006262;28;20946;-70
2021/05/12 04:41:10;;;;;;;;;;;21.20;53.20;;;;;;4994525;28;19934;-70
2021/05/12 04:43:36;;;;;;;;;;;21.20;53.20;;;;;;4996933;28;19929;-69
2021/05/12 04:46:03;;;;;;;;;;;21.20;53.20;;;;;;4991967;28;20052;-72
2021/05/12 04:48:29;;;;;;;;;;;21.20;53.20;;;;;;5007352;28;19929;-69
2021/05/12 04:50:55;;;;;;;;;;;21.20;53.20;;;;;;4988697;28;19933;-69
2021/05/12 04:53:21;;;;;;;;;;;21.20;53.10;;;;;;4993866;28;19929;-69
2021/05/12 04:55:47;;;;;;;;;;;21.20;53.10;;;;;;4996519;28;19930;-70
2021/05/12 04:58:13;;;;;;;;;;;21.20;53.10;;;;;;4987505;28;19951;-71
2021/05/12 05:00:39;;;;;;;;;;;21.20;54.50;;;;;;5008409;28;19929;-72
2021/05/12 05:03:07;;;;;;;;;;;21.20;54.90;;;;;;4983022;28;19936;-71
2021/05/12 05:05:33;;;;;;;;;;;21.20;54.20;;;;;;4984838;28;19941;-71
2021/05/12 05:07:59;;;;;;;;;;;21.20;54.10;;;;;;4957330;28;19984;-73
2021/05/12 05:10:25;;;;;;;;;;;21.10;53.90;;;;;;4998701;28;20534;-70
2021/05/12 05:12:51;;;;;;;;;;;21.10;53.90;;;;;;4998418;28;19929;-70
2021/05/12 05:15:17;;;;;;;;;;;21.10;53.80;;;;;;4994170;28;19930;-71
2021/05/12 05:17:43;;;;;;;;;;;21.10;53.70;;;;;;4986996;28;19940;-70
2021/05/12 05:20:11;;;;;;;;;;;21.10;53.70;;;;;;4994972;28;19941;-69
2021/05/12 05:22:37;;;;;;;;;;;21.10;53.80;;;;;;4986610;28;19929;-78
2021/05/12 05:25:03;;;;;;;;;;;21.00;53.70;;;;;;4998135;28;19934;-70
2021/05/12 05:27:29;;;;;;;;;;;21.10;53.80;;;;;;4994954;28;19929;-70
2021/05/12 05:29:55;;;;;;;;;;;21.10;53.60;;;;;;4991677;28;19936;-74
2021/05/12 05:32:22;;;;;;;;;;;21.20;53.50;;;;;;5004916;28;20093;-70
2021/05/12 05:34:48;;;;;;;;;;;21.20;53.50;;;;;;4992349;28;19935;-69
2021/05/12 05:37:15;;;;;;;;;;;21.20;53.50;;;;;;4998627;28;19936;-71
2021/05/12 05:39:41;;;;;;;;;;;21.20;53.40;;;;;;4973411;28;19930;-72
2021/05/12 05:42:08;;;;;;;;;;;21.20;53.50;;;;;;4993702;28;19930;-74
2021/05/12 05:44:34;;;;;;;;;;;21.20;53.50;;;;;;4990599;28;19945;-71
2021/05/12 05:47:00;;;;;;;;;;;21.20;53.50;;;;;;4995190;28;19939;-70
2021/05/12 05:49:26;;;;;;;;;;;21.20;53.50;;;;;;4999553;28;19933;-70
2021/05/12 05:51:52;;;;;;;;;;;21.20;53.60;;;;;;4999091;28;19929;-70
2021/05/12 05:54:19;;;;;;;;;;;21.20;53.60;;;;;;5005230;28;20954;-70
2021/05/12 05:56:45;;;;;;;;;;;21.10;53.60;;;;;;5000557;28;19933;-70
2021/05/12 05:59:11;;;;;;;;;;;21.10;53.70;;;;;;4985313;28;20047;-73
2021/05/12 06:01:37;;;;;;;;;;;21.10;53.80;;;;;;5007795;28;19938;-73
2021/05/12 06:04:03;;;;;;;;;;;21.00;53.70;;;;;;4981778;28;19929;-71
2021/05/12 06:06:29;;;;;;;;;;;21.00;53.80;;;;;;5014764;28;19929;-69
2021/05/12 06:08:55;;;;;;;;;;;21.00;53.90;;;;;;4981142;28;20992;-71
2021/05/12 06:11:22;;;;;;;;;;;21.00;54.00;;;;;;4999769;28;20010;-70
2021/05/12 06:13:50;;;;;;;;;;;21.00;54.00;;;;;;5004610;28;19936;-69
2021/05/12 06:16:17;;;;;;;;;;;21.00;53.90;;;;;;4989579;28;20134;-74
2021/05/12 06:18:44;;;;;;;;;;;21.00;53.90;;;;;;5003079;28;19990;-71
2021/05/12 06:21:10;;;;;;;;;;;21.10;53.90;;;;;;5008161;28;19937;-72
2021/05/12 06:23:36;;;;;;;;;;;21.10;53.70;;;;;;4989330;28;19933;-72
2021/05/12 06:26:04;;;;;;;;;;;21.10;53.70;;;;;;4989309;28;19939;-71
2021/05/12 06:28:31;;;;;;;;;;;21.10;54.40;;;;;;5009221;28;19925;-71
2021/05/12 06:30:57;;;;;;;;;;;21.10;53.60;;;;;;5003670;28;19976;-68
2021/05/12 06:33:24;;;;;;;;;;;21.10;53.60;;;;;;4994360;28;19940;-71
2021/05/12 06:35:50;;;;;;;;;;;21.10;53.60;;;;;;5008669;28;19929;-70
2021/05/12 06:38:16;;;;;;;;;;;21.10;53.80;;;;;;5001712;28;20299;-70
2021/05/12 06:40:42;;;;;;;;;;;21.10;53.70;;;;;;5002826;28;19929;-70
2021/05/12 06:43:08;;;;;;;;;;;21.10;53.80;;;;;;5002364;28;20378;-70
2021/05/12 06:45:35;;;;;;;;;;;21.00;53.80;;;;;;4993882;28;19936;-71
2021/05/12 06:48:01;;;;;;;;;;;21.00;53.80;;;;;;4999089;28;20424;-72
2021/05/12 06:50:27;;;;;;;;;;;21.00;53.80;;;;;;5008217;28;19929;-67
2021/05/12 06:52:53;;;;;;;;;;;21.00;53.80;;;;;;5003005;28;19929;-71
2021/05/12 06:55:19;;;;;;;;;;;21.00;53.80;;;;;;5002746;28;19936;-69
2021/05/12 06:57:45;;;;;;;;;;;21.00;54.30;;;;;;4999990;28;19945;-71
2021/05/12 07:00:12;;;;;;;;;;;21.00;54.20;;;;;;4986895;28;20424;-71
2021/05/12 07:02:38;;;;;;;;;;;20.90;54.10;;;;;;4971752;28;19929;-71
2021/05/12 07:05:05;;;;;;;;;;;20.90;53.90;;;;;;4998010;28;20750;-69
2021/05/12 07:07:31;;;;;;;;;;;20.90;53.70;;;;;;4973401;28;20300;-71
2021/05/12 07:09:57;;;;;;;;;;;20.90;53.80;;;;;;5003501;28;19929;-72
2021/05/12 07:12:23;;;;;;;;;;;20.90;53.90;;;;;;4999610;28;19991;-73
2021/05/12 07:14:49;;;;;;;;;;;20.90;54.00;;;;;;4998490;28;20872;-70
2021/05/12 07:17:15;;;;;;;;;;;20.90;54.10;;;;;;4999243;28;19929;-73
2021/05/12 07:19:42;;;;;;;;;;;20.90;54.10;;;;;;4993066;28;19929;-71
2021/05/12 07:22:08;;;;;;;;;;;20.90;54.10;;;;;;5010016;28;19929;-71
2021/05/12 07:24:34;;;;;;;;;;;20.90;54.30;;;;;;4999887;28;19986;-72
2021/05/12 07:27:00;;;;;;;;;;;20.90;54.40;;;;;;4992961;28;19933;-72
2021/05/12 07:29:26;;;;;;;;;;;20.90;54.50;;;;;;5000253;28;19976;-74
2021/05/12 07:31:52;;;;;;;;;;;20.90;54.70;;;;;;5005399;28;19937;-73
2021/05/12 07:34:19;;;;;;;;;;;20.90;54.90;;;;;;5001449;28;19929;-69
2021/05/12 07:36:46;;;;;;;;;;;20.90;55.10;;;;;;4998685;28;19980;-69
2021/05/12 07:39:12;;;;;;;;;;;20.90;55.00;;;;;;4999234;28;19929;-71
2021/05/12 07:41:38;;;;;;;;;;;20.90;55.10;;;;;;4997415;28;19929;-70
2021/05/12 07:44:04;;;;;;;;;;;20.90;55.00;;;;;;5003405;28;20460;-69
2021/05/12 07:46:30;;;;;;;;;;;20.90;55.00;;;;;;4994092;28;19937;-71
2021/05/12 07:48:56;;;;;;;;;;;20.90;55.00;;;;;;4985974;28;19937;-69
2021/05/12 07:51:22;;;;;;;;;;;20.90;55.00;;;;;;4996599;28;19999;-72
2021/05/12 07:53:49;;;;;;;;;;;20.90;55.20;;;;;;5002475;28;20396;-72
2021/05/12 07:56:15;;;;;;;;;;;20.90;55.90;;;;;;5001625;28;19928;-70
2021/05/12 07:58:41;;;;;;;;;;;20.90;55.20;;;;;;5004198;28;19929;-68
2021/05/12 08:01:17;;;;;;;;;;;20.90;55.10;;;;;;4975622;28;19929;-71
2021/05/12 08:03:43;;;;;;;;;;;20.90;55.20;;;;;;4997204;28;20357;-69
2021/05/12 08:06:09;;;;;;;;;;;20.80;55.10;;;;;;4991372;28;19933;-70
2021/05/12 08:08:37;;;;;;;;;;;20.80;55.30;;;;;;4992731;28;20012;-68
2021/05/12 08:11:04;;;;;;;;;;;20.80;55.40;;;;;;4993532;28;19944;-73
2021/05/12 08:13:30;;;;;;;;;;;20.90;55.20;;;;;;4991641;28;19933;-70
2021/05/12 08:15:57;;;;;;;;;;;20.90;55.00;;;;;;4987443;28;19948;-71
2021/05/12 08:18:23;;;;;;;;;;;20.90;55.00;;;;;;5000015;28;20068;-70
2021/05/12 08:20:49;;;;;;;;;;;20.90;55.00;;;;;;4996674;28;19928;-70
2021/05/12 08:23:15;;;;;;;;;;;20.90;55.00;;;;;;4997305;28;19934;-70
2021/05/12 08:25:44;;;;;;;;;;;20.90;54.90;;;;;;5000576;28;20052;-70
2021/05/12 08:28:11;;;;;;;;;;;21.00;55.00;;;;;;4997732;28;20751;-71
2021/05/12 08:30:39;;;;;;;;;;;20.90;54.90;;;;;;4991125;28;19999;-73
2021/05/12 08:33:05;;;;;;;;;;;20.90;55.20;;;;;;4995895;28;20016;-68
2021/05/12 08:35:31;;;;;;;;;;;20.90;55.20;;;;;;4999508;28;19929;-70
2021/05/12 08:37:57;;;;;;;;;;;20.90;55.30;;;;;;5001988;28;19933;-70
2021/05/12 08:40:24;;;;;;;;;;;20.90;55.40;;;;;;4996965;28;20401;-70
2021/05/12 08:42:50;;;;;;;;;;;20.90;55.40;;;;;;5002710;28;19932;-70
2021/05/12 08:45:17;;;;;;;;;;;20.80;55.40;;;;;;4998251;28;20309;-71
2021/05/12 08:47:43;;;;;;;;;;;20.80;55.30;;;;;;4997687;28;19929;-70
2021/05/12 08:50:10;;;;;;;;;;;20.80;55.80;;;;;;4994901;28;20958;-69
2021/05/12 08:52:36;;;;;;;;;;;20.90;55.10;;;;;;4997369;28;19929;-71
2021/05/12 08:55:02;;;;;;;;;;;20.90;54.80;;;;;;5001698;28;19930;-71
2021/05/12 08:57:28;;;;;;;;;;;21.00;54.80;;;;;;4998401;28;21661;-71
2021/05/12 08:59:54;;;;;;;;;;;21.00;54.80;;;;;;4988083;28;19929;-70
2021/05/12 09:02:23;;;;;;;;;;;21.00;54.70;;;;;;4998661;28;19933;-69
2021/05/12 09:04:49;;;;;;;;;;;21.00;54.60;;;;;;4993049;28;19937;-69
2021/05/12 09:07:15;;;;;;;;;;;21.10;54.60;;;;;;4987689;28;19929;-70
2021/05/12 09:09:41;;;;;;;;;;;21.10;54.60;;;;;;4975644;28;19936;-70
2021/05/12 09:12:12;;;;;;;;;;;21.20;54.50;;;;;;4988861;28;19933;-73
2021/05/12 09:14:40;;;;;;;;;;;21.10;54.40;;;;;;4983908;28;20311;-71
2021/05/12 09:17:06;;;;;;;;;;;21.10;54.40;;;;;;4978915;28;19930;-73
2021/05/12 09:19:33;;;;;;;;;;;21.10;54.50;;;;;;4982381;28;19933;-71
2021/05/12 09:22:00;;;;;;;;;;;21.10;54.40;;;;;;4998375;28;19933;-70
2021/05/12 09:24:28;;;;;;;;;;;21.10;54.60;;;;;;5000597;28;20435;-70
2021/05/12 09:26:54;;;;;;;;;;;21.10;54.50;;;;;;4996849;28;19934;-71
2021/05/12 09:29:21;;;;;;;;;;;21.10;54.40;;;;;;4997658;28;19983;-72
2021/05/12 09:31:47;;;;;;;;;;;21.10;54.30;;;;;;4987375;28;19960;-71
2021/05/12 09:34:13;;;;;;;;;;;21.20;54.30;;;;;;4978470;28;19937;-69
2021/05/12 09:36:40;;;;;;;;;;;21.20;54.30;;;;;;4995787;28;19929;-70
2021/05/12 09:39:09;;;;;;;;;;;21.20;54.30;;;;;;5000448;28;19929;-71
2021/05/12 09:41:35;;;;;;;;;;;21.20;54.30;;;;;;4994275;28;19952;-71
2021/05/12 09:44:04;;;;;;;;;;;21.20;54.30;;;;;;4991426;28;19929;-71
2021/05/12 09:46:32;;;;;;;;;;;21.10;54.30;;;;;;4987638;28;20035;-69
2021/05/12 09:49:14;;;;;;;;;;;21.10;55.20;;;;;;4963968;28;19942;-70
2021/05/12 09:51:42;;;;;;;;;;;21.10;55.20;;;;;;4983842;28;19956;-69
2021/05/12 09:54:09;;;;;;;;;;;21.10;56.10;;;;;;4993194;28;19980;-70
2021/05/12 09:56:35;;;;;;;;;;;21.10;56.10;;;;;;4994496;28;20034;-69
2021/05/12 09:59:04;;;;;;;;;;;21.10;56.10;;;;;;4985258;28;19929;-76
2021/05/12 10:01:40;;;;;;;;;;;21.20;56.20;;;;;;4986804;28;19930;-70
2021/05/12 10:04:18;;;;;;;;;;;21.20;56.50;;;;;;4997808;28;19929;-70
2021/05/12 10:06:45;;;;;;;;;;;21.20;56.70;;;;;;4987158;28;19929;-70
2021/05/12 10:09:18;;;;;;;;;;;21.20;56.80;;;;;;4988190;28;19929;-73
2021/05/12 10:11:46;;;;;;;;;;;21.20;57.00;;;;;;4977237;28;19925;-68
2021/05/12 10:14:12;;;;;;;;;;;21.10;57.30;;;;;;4997523;28;20952;-69
2021/05/12 10:16:38;;;;;;;;;;;21.10;57.40;;;;;;4989379;28;19929;-68
2021/05/12 10:19:04;;;;;;;;;;;21.10;57.20;;;;;;4995186;28;20036;-71
2021/05/12 10:21:30;;;;;;;;;;;21.00;57.40;;;;;;4988976;28;19932;-71
2021/05/12 10:23:57;;;;;;;;;;;21.00;58.30;;;;;;4986479;28;20440;-72
2021/05/12 10:26:23;;;;;;;;;;;20.90;58.00;;;;;;4991547;28;19929;-71
2021/05/12 10:28:49;;;;;;;;;;;20.90;58.10;;;;;;4984524;28;19929;-72
2021/05/12 10:31:15;;;;;;;;;;;20.90;58.40;;;;;;4977874;28;19935;-70
2021/05/12 10:33:44;;;;;;;;;;;20.90;58.20;;;;;;4996606;28;19929;-71
2021/05/12 10:36:11;;;;;;;;;;;20.90;58.50;;;;;;4992690;28;20601;-70
2021/05/12 10:38:37;;;;;;;;;;;20.90;59.10;;;;;;4978377;28;19951;-72
2021/05/12 10:41:04;;;;;;;;;;;20.80;58.40;;;;;;4995851;28;20566;-71
2021/05/12 10:43:35;;;;;;;;;;;20.80;59.10;;;;;;4997319;28;19930;-70
2021/05/12 10:46:04;;;;;;;;;;;20.90;59.60;;;;;;4985800;28;19936;-69
2021/05/12 10:48:34;;;;;;;;;;;20.90;59.00;;;;;;5010473;28;19937;-70
2021/05/12 10:51:00;;;;;;;;;;;20.90;60.30;;;;;;4993740;28;19933;-72
2021/05/12 10:53:27;;;;;;;;;;;20.90;58.90;;;;;;5001938;28;19930;-73
2021/05/12 10:56:00;;;;;;;;;;;20.90;59.20;;;;;;5003416;28;19933;-70
2021/05/12 10:58:28;;;;;;;;;;;21.00;59.20;;;;;;5003039;28;19933;-71
2021/05/12 11:00:54;;;;;;;;;;;21.00;59.30;;;;;;4980460;28;19930;-71
2021/05/12 11:03:20;;;;;;;;;;;21.00;59.70;;;;;;4994076;28;19938;-69
2021/05/12 11:05:59;;;;;;;;;;;21.00;59.90;;;;;;4970874;28;19937;-68
2021/05/12 11:08:25;;;;;;;;;;;21.00;60.10;;;;;;4982165;28;20547;-71
2021/05/12 11:10:51;;;;;;;;;;;20.90;59.90;;;;;;4989795;28;19937;-70
2021/05/12 11:13:18;;;;;;;;;;;20.90;59.80;;;;;;5001483;28;19929;-70
2021/05/12 11:15:51;;;;;;;;;;;21.00;59.30;;;;;;4993036;28;19937;-69
2021/05/12 11:18:31;;;;;;;;;;;21.00;59.10;;;;;;5011830;28;19937;-69
2021/05/12 11:21:12;;;;;;;;;;;21.00;59.30;;;;;;4998381;28;19933;-70
2021/05/12 11:23:50;;;;;;;;;;;21.00;59.80;;;;;;5001563;28;19933;-71
2021/05/12 11:26:26;;;;;;;;;;;21.00;59.60;;;;;;5002254;28;20431;-71
2021/05/12 11:29:02;;;;;;;;;;;21.00;59.80;;;;;;4997262;28;20652;-71
2021/05/12 11:31:37;;;;;;;;;;;21.00;60.40;;;;;;4999678;28;19975;-70
2021/05/12 11:34:03;;;;;;;;;;;21.00;60.00;;;;;;4999062;28;19984;-72
2021/05/12 11:36:33;;;;;;;;;;;21.00;59.00;;;;;;4996693;28;19934;-70
2021/05/12 11:38:59;;;;;;;;;;;21.00;59.30;;;;;;4998140;28;19979;-72
2021/05/12 11:41:25;;;;;;;;;;;21.00;58.70;;;;;;4992861;28;19930;-72
2021/05/12 11:43:52;;;;;;;;;;;21.10;58.90;;;;;;5003648;28;19930;-70
2021/05/12 11:46:19;;;;;;;;;;;21.10;59.40;;;;;;4997614;28;19937;-71
2021/05/12 11:48:46;;;;;;;;;;;21.10;59.60;;;;;;4998591;28;19925;-70
2021/05/12 11:51:13;;;;;;;;;;;21.00;59.30;;;;;;4997156;28;19930;-73
2021/05/12 11:53:40;;;;;;;;;;;21.00;59.80;;;;;;4996832;28;19936;-69
2021/05/12 11:56:06;;;;;;;;;;;21.00;59.80;;;;;;4999479;28;20613;-72
2021/05/12 11:58:32;;;;;;;;;;;21.00;59.80;;;;;;4988685;28;19933;-72
2021/05/12 12:01:05;;;;;;;;;;;21.00;59.90;;;;;;4987215;28;20353;-70
2021/05/12 12:03:32;;;;;;;;;;;20.90;59.80;;;;;;4996860;28;19964;-71
2021/05/12 12:06:03;;;;;;;;;;;20.90;60.60;;;;;;4979059;28;20181;-69
2021/05/12 12:08:29;;;;;;;;;;;21.00;60.80;;;;;;4991093;28;19929;-70
2021/05/12 12:11:05;;;;;;;;;;;21.00;59.70;;;;;;4988738;28;21333;-69
2021/05/12 12:13:31;;;;;;;;;;;21.00;60.20;;;;;;5012449;28;20457;-68
2021/05/12 12:15:57;;;;;;;;;;;21.00;60.20;;;;;;4989165;28;19936;-72
2021/05/12 12:18:26;;;;;;;;;;;21.00;60.30;;;;;;5005282;28;19937;-70
2021/05/12 12:20:52;;;;;;;;;;;21.00;60.20;;;;;;5002423;28;19963;-74
2021/05/12 12:23:25;;;;;;;;;;;21.00;59.70;;;;;;4997103;28;19933;-71
2021/05/12 12:26:07;;;;;;;;;;;21.00;60.70;;;;;;4994631;28;20428;-70
2021/05/12 12:28:33;;;;;;;;;;;21.00;60.10;;;;;;4999392;28;19929;-70
2021/05/12 12:30:59;;;;;;;;;;;21.00;59.70;;;;;;4996409;28;19956;-71
2021/05/12 12:33:25;;;;;;;;;;;21.00;59.90;;;;;;4996473;28;20388;-71
2021/05/12 12:36:04;;;;;;;;;;;21.00;60.70;;;;;;4979287;28;19933;-70
2021/05/12 12:38:32;;;;;;;;;;;21.00;60.70;;;;;;4978004;28;19969;-69
2021/05/12 12:40:58;;;;;;;;;;;21.00;61.60;;;;;;4993386;28;19933;-68
2021/05/12 12:43:24;;;;;;;;;;;20.90;60.80;;;;;;4993406;28;19929;-69
2021/05/12 12:45:50;;;;;;;;;;;20.90;60.70;;;;;;4996091;28;19928;-69
2021/05/12 12:48:16;;;;;;;;;;;20.90;60.80;;;;;;4997091;28;20003;-68
2021/05/12 12:50:42;;;;;;;;;;;20.90;60.90;;;;;;4985129;28;19929;-69
2021/05/12 12:53:10;;;;;;;;;;;20.90;60.90;;;;;;5000050;28;20445;-71
2021/05/12 12:55:37;;;;;;;;;;;20.80;60.90;;;;;;4997403;28;19956;-73
2021/05/12 12:58:03;;;;;;;;;;;20.80;61.00;;;;;;4992462;28;19941;-69
2021/05/12 13:00:29;;;;;;;;;;;20.80;61.10;;;;;;4961244;28;19937;-68
2021/05/12 13:03:04;;;;;;;;;;;20.80;61.70;;;;;;4984274;28;19979;-68
2021/05/12 13:05:30;;;;;;;;;;;20.80;61.70;;;;;;4974120;28;19925;-69
2021/05/12 13:08:11;;;;;;;;;;;20.80;62.50;;;;;;4989508;28;19936;-71
2021/05/12 13:10:39;;;;;;;;;;;20.80;62.20;;;;;;4990756;28;19929;-71
2021/05/12 13:13:05;;;;;;;;;;;20.80;62.20;;;;;;5002168;28;20020;-71
2021/05/12 13:15:32;;;;;;;;;;;20.80;61.70;;;;;;4994858;28;19929;-69
2021/05/12 13:17:58;;;;;;;;;;;20.80;61.60;;;;;;4991108;28;19938;-70
2021/05/12 13:20:24;;;;;;;;;;;20.80;61.80;;;;;;4993477;28;19936;-70
2021/05/12 13:23:00;;;;;;;;;;;20.90;61.70;;;;;;4989330;28;19940;-69
2021/05/12 13:25:26;;;;;;;;;;;20.80;61.70;;;;;;4984200;28;19929;-71
2021/05/12 13:27:53;;;;;;;;;;;20.80;61.80;;;;;;4983422;28;20016;-70
2021/05/12 13:30:19;;;;;;;;;;;20.80;61.60;;;;;;4981779;28;19975;-70
2021/05/12 13:32:45;;;;;;;;;;;20.80;62.20;;;;;;4998103;28;19948;-72
2021/05/12 13:35:11;;;;;;;;;;;20.80;61.90;;;;;;4992605;28;19953;-70
2021/05/12 13:37:38;;;;;;;;;;;20.80;61.90;;;;;;4996597;28;19929;-71
2021/05/12 13:40:04;;;;;;;;;;;20.80;61.50;;;;;;4994184;28;19937;-69
2021/05/12 13:42:30;;;;;;;;;;;20.80;61.30;;;;;;4997205;28;20442;-70
2021/05/12 13:44:57;;;;;;;;;;;20.90;61.70;;;;;;4994939;28;19934;-69
2021/05/12 13:47:23;;;;;;;;;;;20.90;61.70;;;;;;4990010;28;19952;-72
2021/05/12 13:49:49;;;;;;;;;;;20.90;61.70;;;;;;5002907;28;20106;-70
2021/05/12 13:52:23;;;;;;;;;;;20.90;61.70;;;;;;4993510;28;20324;-70
2021/05/12 13:54:54;;;;;;;;;;;20.90;61.90;;;;;;4993976;28;20454;-69
2021/05/12 13:57:27;;;;;;;;;;;20.80;61.40;;;;;;4994093;28;19936;-72
2021/05/12 14:00:05;;;;;;;;;;;20.80;62.20;;;;;;4982007;28;20426;-71
2021/05/12 14:02:38;;;;;;;;;;;20.80;61.90;;;;;;4953816;28;19936;-71
2021/05/12 14:05:05;;;;;;;;;;;20.90;61.90;;;;;;4998211;28;19940;-72
2021/05/12 14:07:32;;;;;;;;;;;20.90;61.50;;;;;;4981118;28;19930;-72
2021/05/12 14:09:58;;;;;;;;;;;20.90;61.30;;;;;;5002199;28;19972;-71
2021/05/12 14:12:28;;;;;;;;;;;20.90;61.20;;;;;;4982201;28;19988;-70
2021/05/12 14:15:01;;;;;;;;;;;20.90;61.30;;;;;;4986561;28;19930;-70